sensor_id;sensor_type;location;lat;lon;timestamp;P1;durP1;ratioP1;P2;durP2;ratioP2
7158;SDS011;63175;52.374;13.132;2023-07-20T00:00:05;1.90;;;1.80;;
7158;SDS011;63175;52.374;13.132;2023-07-20T00:02:32;1.93;;;1.83;;
7158;SDS011;63175;52.374;13.132;2023-07-20T00:04:59;1.70;;;1.60;;
7158;SDS011;63175;52.374;13.132;2023-07-20T00:07:26;1.80;;;1.53;;
7158;SDS011;63175;52.374;13.132;2023-07-20T00:09:53;2.77;;;2.03;;
7158;SDS011;63175;52.374;13.132;2023-07-20T00:12:21;3.03;;;1.80;;
7158;SDS011;63175;52.374;13.132;2023-07-20T00:14:48;1.97;;;1.87;;
7158;SDS011;63175;52.374;13.132;2023-07-20T00:17:18;2.70;;;1.97;;
7158;SDS011;63175;52.374;13.132;2023-07-20T00:19:45;1.77;;;1.67;;
7158;SDS011;63175;52.374;13.132;2023-07-20T00:22:12;4.00;;;1.90;;
7158;SDS011;63175;52.374;13.132;2023-07-20T00:24:39;2.03;;;1.80;;
7158;SDS011;63175;52.374;13.132;2023-07-20T00:27:06;1.60;;;1.50;;
7158;SDS011;63175;52.374;13.132;2023-07-20T00:29:34;1.23;;;1.23;;
7158;SDS011;63175;52.374;13.132;2023-07-20T00:32:01;1.73;;;1.63;;
7158;SDS011;63175;52.374;13.132;2023-07-20T00:34:30;1.63;;;1.53;;
7158;SDS011;63175;52.374;13.132;2023-07-20T00:36:57;1.67;;;1.57;;
7158;SDS011;63175;52.374;13.132;2023-07-20T00:39:23;2.23;;;1.97;;
7158;SDS011;63175;52.374;13.132;2023-07-20T00:41:50;1.80;;;1.70;;
7158;SDS011;63175;52.374;13.132;2023-07-20T00:44:17;2.10;;;2.00;;
7158;SDS011;63175;52.374;13.132;2023-07-20T00:46:45;1.87;;;1.77;;
7158;SDS011;63175;52.374;13.132;2023-07-20T00:49:13;2.03;;;1.87;;
7158;SDS011;63175;52.374;13.132;2023-07-20T00:51:40;2.30;;;1.87;;
7158;SDS011;63175;52.374;13.132;2023-07-20T00:54:07;2.40;;;2.20;;
7158;SDS011;63175;52.374;13.132;2023-07-20T00:56:34;2.03;;;1.93;;
7158;SDS011;63175;52.374;13.132;2023-07-20T00:59:02;2.43;;;2.33;;
7158;SDS011;63175;52.374;13.132;2023-07-20T01:01:29;2.17;;;2.07;;
7158;SDS011;63175;52.374;13.132;2023-07-20T01:03:57;2.00;;;1.90;;
7158;SDS011;63175;52.374;13.132;2023-07-20T01:06:26;1.90;;;1.80;;
7158;SDS011;63175;52.374;13.132;2023-07-20T01:09:01;2.23;;;2.00;;
7158;SDS011;63175;52.374;13.132;2023-07-20T01:11:36;2.17;;;2.07;;
7158;SDS011;63175;52.374;13.132;2023-07-20T01:14:04;1.80;;;1.70;;
7158;SDS011;63175;52.374;13.132;2023-07-20T01:16:32;1.70;;;1.60;;
7158;SDS011;63175;52.374;13.132;2023-07-20T01:19:01;1.70;;;1.60;;
7158;SDS011;63175;52.374;13.132;2023-07-20T01:21:37;1.77;;;1.67;;
7158;SDS011;63175;52.374;13.132;2023-07-20T01:27:22;1.53;;;1.50;;
7158;SDS011;63175;52.374;13.132;2023-07-20T01:30:13;2.10;;;1.97;;
7158;SDS011;63175;52.374;13.132;2023-07-20T01:32:51;2.77;;;2.50;;
7158;SDS011;63175;52.374;13.132;2023-07-20T01:35:21;2.33;;;2.10;;
7158;SDS011;63175;52.374;13.132;2023-07-20T01:37:53;2.90;;;1.73;;
7158;SDS011;63175;52.374;13.132;2023-07-20T01:40:21;1.80;;;1.70;;
7158;SDS011;63175;52.374;13.132;2023-07-20T01:42:50;1.90;;;1.80;;
7158;SDS011;63175;52.374;13.132;2023-07-20T01:45:17;1.73;;;1.63;;
7158;SDS011;63175;52.374;13.132;2023-07-20T01:47:44;2.00;;;1.90;;
7158;SDS011;63175;52.374;13.132;2023-07-20T01:50:13;5.93;;;1.90;;
7158;SDS011;63175;52.374;13.132;2023-07-20T01:52:39;1.70;;;1.60;;
7158;SDS011;63175;52.374;13.132;2023-07-20T01:55:07;2.13;;;2.03;;
7158;SDS011;63175;52.374;13.132;2023-07-20T01:57:35;1.53;;;1.43;;
7158;SDS011;63175;52.374;13.132;2023-07-20T02:00:02;1.83;;;1.73;;
7158;SDS011;63175;52.374;13.132;2023-07-20T02:02:29;2.37;;;2.17;;
7158;SDS011;63175;52.374;13.132;2023-07-20T02:04:56;2.37;;;2.17;;
7158;SDS011;63175;52.374;13.132;2023-07-20T02:07:25;2.60;;;2.40;;
7158;SDS011;63175;52.374;13.132;2023-07-20T02:09:52;2.60;;;1.77;;
7158;SDS011;63175;52.374;13.132;2023-07-20T02:12:19;2.17;;;1.97;;
7158;SDS011;63175;52.374;13.132;2023-07-20T02:14:46;1.87;;;1.77;;
7158;SDS011;63175;52.374;13.132;2023-07-20T02:17:13;2.27;;;2.00;;
7158;SDS011;63175;52.374;13.132;2023-07-20T02:19:40;2.10;;;2.00;;
7158;SDS011;63175;52.374;13.132;2023-07-20T02:22:07;2.10;;;2.00;;
7158;SDS011;63175;52.374;13.132;2023-07-20T02:24:35;2.53;;;2.33;;
7158;SDS011;63175;52.374;13.132;2023-07-20T02:27:02;2.50;;;2.40;;
7158;SDS011;63175;52.374;13.132;2023-07-20T02:29:30;2.30;;;2.20;;
7158;SDS011;63175;52.374;13.132;2023-07-20T02:31:56;2.23;;;2.07;;
7158;SDS011;63175;52.374;13.132;2023-07-20T02:34:23;2.40;;;2.30;;
7158;SDS011;63175;52.374;13.132;2023-07-20T02:36:50;2.67;;;2.50;;
7158;SDS011;63175;52.374;13.132;2023-07-20T02:39:17;2.37;;;2.27;;
7158;SDS011;63175;52.374;13.132;2023-07-20T02:41:45;2.93;;;2.43;;
7158;SDS011;63175;52.374;13.132;2023-07-20T02:44:13;2.43;;;2.30;;
7158;SDS011;63175;52.374;13.132;2023-07-20T02:46:40;2.43;;;2.30;;
7158;SDS011;63175;52.374;13.132;2023-07-20T02:49:07;2.83;;;2.63;;
7158;SDS011;63175;52.374;13.132;2023-07-20T02:51:34;2.63;;;2.43;;
7158;SDS011;63175;52.374;13.132;2023-07-20T02:54:01;2.50;;;2.30;;
7158;SDS011;63175;52.374;13.132;2023-07-20T02:56:28;3.00;;;2.80;;
7158;SDS011;63175;52.374;13.132;2023-07-20T02:58:56;2.73;;;2.57;;
7158;SDS011;63175;52.374;13.132;2023-07-20T03:01:23;3.50;;;3.30;;
7158;SDS011;63175;52.374;13.132;2023-07-20T03:03:52;3.23;;;2.83;;
7158;SDS011;63175;52.374;13.132;2023-07-20T03:06:19;2.80;;;2.60;;
7158;SDS011;63175;52.374;13.132;2023-07-20T03:08:46;2.90;;;2.70;;
7158;SDS011;63175;52.374;13.132;2023-07-20T03:11:13;2.87;;;2.67;;
7158;SDS011;63175;52.374;13.132;2023-07-20T03:13:40;2.83;;;2.53;;
7158;SDS011;63175;52.374;13.132;2023-07-20T03:16:09;3.37;;;3.13;;
7158;SDS011;63175;52.374;13.132;2023-07-20T03:18:37;3.10;;;2.90;;
7158;SDS011;63175;52.374;13.132;2023-07-20T03:21:04;6.97;;;4.10;;
7158;SDS011;63175;52.374;13.132;2023-07-20T03:23:31;4.50;;;3.27;;
7158;SDS011;63175;52.374;13.132;2023-07-20T03:25:58;3.40;;;3.20;;
7158;SDS011;63175;52.374;13.132;2023-07-20T03:28:25;5.67;;;4.60;;
7158;SDS011;63175;52.374;13.132;2023-07-20T03:30:55;6.47;;;4.17;;
7158;SDS011;63175;52.374;13.132;2023-07-20T03:33:24;3.03;;;2.87;;
7158;SDS011;63175;52.374;13.132;2023-07-20T03:35:52;3.73;;;3.43;;
7158;SDS011;63175;52.374;13.132;2023-07-20T03:38:19;2.77;;;2.57;;
7158;SDS011;63175;52.374;13.132;2023-07-20T03:40:49;3.23;;;3.00;;
7158;SDS011;63175;52.374;13.132;2023-07-20T03:43:17;4.03;;;3.53;;
7158;SDS011;63175;52.374;13.132;2023-07-20T03:45:44;3.40;;;3.20;;
7158;SDS011;63175;52.374;13.132;2023-07-20T03:48:13;3.20;;;3.00;;
7158;SDS011;63175;52.374;13.132;2023-07-20T03:50:43;3.97;;;3.67;;
7158;SDS011;63175;52.374;13.132;2023-07-20T03:53:10;3.73;;;3.47;;
7158;SDS011;63175;52.374;13.132;2023-07-20T03:55:37;3.23;;;3.03;;
7158;SDS011;63175;52.374;13.132;2023-07-20T03:58:05;4.13;;;3.73;;
7158;SDS011;63175;52.374;13.132;2023-07-20T04:00:32;4.17;;;3.97;;
7158;SDS011;63175;52.374;13.132;2023-07-20T04:03:00;4.77;;;4.30;;
7158;SDS011;63175;52.374;13.132;2023-07-20T04:05:26;4.70;;;4.40;;
7158;SDS011;63175;52.374;13.132;2023-07-20T04:07:55;6.43;;;5.83;;
7158;SDS011;63175;52.374;13.132;2023-07-20T04:10:21;5.00;;;4.60;;
7158;SDS011;63175;52.374;13.132;2023-07-20T04:12:48;7.20;;;4.50;;
7158;SDS011;63175;52.374;13.132;2023-07-20T04:15:15;6.53;;;5.93;;
7158;SDS011;63175;52.374;13.132;2023-07-20T04:17:42;8.20;;;6.80;;
7158;SDS011;63175;52.374;13.132;2023-07-20T04:20:10;5.73;;;5.33;;
7158;SDS011;63175;52.374;13.132;2023-07-20T04:22:38;5.60;;;5.20;;
7158;SDS011;63175;52.374;13.132;2023-07-20T04:25:06;6.00;;;5.50;;
7158;SDS011;63175;52.374;13.132;2023-07-20T04:27:34;5.30;;;4.80;;
7158;SDS011;63175;52.374;13.132;2023-07-20T04:30:01;4.93;;;4.13;;
7158;SDS011;63175;52.374;13.132;2023-07-20T04:32:29;4.30;;;4.00;;
7158;SDS011;63175;52.374;13.132;2023-07-20T04:34:58;6.13;;;5.03;;
7158;SDS011;63175;52.374;13.132;2023-07-20T04:37:25;4.77;;;4.37;;
7158;SDS011;63175;52.374;13.132;2023-07-20T04:39:52;4.77;;;4.33;;
7158;SDS011;63175;52.374;13.132;2023-07-20T04:42:20;5.17;;;4.77;;
7158;SDS011;63175;52.374;13.132;2023-07-20T04:44:47;5.53;;;5.13;;
7158;SDS011;63175;52.374;13.132;2023-07-20T04:47:14;5.63;;;5.13;;
7158;SDS011;63175;52.374;13.132;2023-07-20T04:49:41;5.10;;;4.70;;
7158;SDS011;63175;52.374;13.132;2023-07-20T04:52:08;5.00;;;4.70;;
7158;SDS011;63175;52.374;13.132;2023-07-20T04:54:34;6.00;;;4.83;;
7158;SDS011;63175;52.374;13.132;2023-07-20T04:57:01;4.60;;;3.93;;
7158;SDS011;63175;52.374;13.132;2023-07-20T04:59:30;4.57;;;4.27;;
7158;SDS011;63175;52.374;13.132;2023-07-20T05:01:59;4.10;;;3.90;;
7158;SDS011;63175;52.374;13.132;2023-07-20T05:04:25;4.40;;;4.10;;
7158;SDS011;63175;52.374;13.132;2023-07-20T05:06:52;4.30;;;3.90;;
7158;SDS011;63175;52.374;13.132;2023-07-20T05:09:19;4.90;;;4.50;;
7158;SDS011;63175;52.374;13.132;2023-07-20T05:11:46;5.13;;;4.63;;
7158;SDS011;63175;52.374;13.132;2023-07-20T05:14:14;4.67;;;4.33;;
7158;SDS011;63175;52.374;13.132;2023-07-20T05:16:43;4.30;;;4.07;;
7158;SDS011;63175;52.374;13.132;2023-07-20T05:19:10;3.80;;;3.57;;
7158;SDS011;63175;52.374;13.132;2023-07-20T05:21:36;3.43;;;3.17;;
7158;SDS011;63175;52.374;13.132;2023-07-20T05:24:03;3.23;;;3.03;;
7158;SDS011;63175;52.374;13.132;2023-07-20T05:26:31;5.70;;;5.20;;
7158;SDS011;63175;52.374;13.132;2023-07-20T05:28:58;3.90;;;3.60;;
7158;SDS011;63175;52.374;13.132;2023-07-20T05:31:25;3.87;;;3.27;;
7158;SDS011;63175;52.374;13.132;2023-07-20T05:33:53;3.33;;;3.13;;
7158;SDS011;63175;52.374;13.132;2023-07-20T05:36:20;3.80;;;3.60;;
7158;SDS011;63175;52.374;13.132;2023-07-20T05:38:47;4.30;;;3.50;;
7158;SDS011;63175;52.374;13.132;2023-07-20T05:41:14;3.03;;;2.83;;
7158;SDS011;63175;52.374;13.132;2023-07-20T05:43:41;3.77;;;3.57;;
7158;SDS011;63175;52.374;13.132;2023-07-20T05:46:08;4.37;;;3.53;;
7158;SDS011;63175;52.374;13.132;2023-07-20T05:48:35;2.97;;;2.77;;
7158;SDS011;63175;52.374;13.132;2023-07-20T05:51:03;3.27;;;3.07;;
7158;SDS011;63175;52.374;13.132;2023-07-20T05:53:30;4.17;;;3.87;;
7158;SDS011;63175;52.374;13.132;2023-07-20T05:55:57;4.57;;;4.17;;
7158;SDS011;63175;52.374;13.132;2023-07-20T05:58:24;4.17;;;3.80;;
7158;SDS011;63175;52.374;13.132;2023-07-20T06:00:51;3.27;;;3.00;;
7158;SDS011;63175;52.374;13.132;2023-07-20T06:03:19;4.30;;;4.00;;
7158;SDS011;63175;52.374;13.132;2023-07-20T06:05:47;4.27;;;3.97;;
7158;SDS011;63175;52.374;13.132;2023-07-20T06:08:15;3.57;;;3.37;;
7158;SDS011;63175;52.374;13.132;2023-07-20T06:10:42;4.40;;;4.00;;
7158;SDS011;63175;52.374;13.132;2023-07-20T06:13:09;4.70;;;4.30;;
7158;SDS011;63175;52.374;13.132;2023-07-20T06:15:36;4.73;;;3.13;;
7158;SDS011;63175;52.374;13.132;2023-07-20T06:18:04;3.50;;;3.20;;
7158;SDS011;63175;52.374;13.132;2023-07-20T06:20:31;3.60;;;3.27;;
7158;SDS011;63175;52.374;13.132;2023-07-20T06:22:57;2.70;;;2.50;;
7158;SDS011;63175;52.374;13.132;2023-07-20T06:25:26;2.73;;;2.53;;
7158;SDS011;63175;52.374;13.132;2023-07-20T06:27:54;2.40;;;2.30;;
7158;SDS011;63175;52.374;13.132;2023-07-20T06:30:22;2.63;;;1.80;;
7158;SDS011;63175;52.374;13.132;2023-07-20T06:32:49;3.17;;;2.30;;
7158;SDS011;63175;52.374;13.132;2023-07-20T06:35:16;2.30;;;2.10;;
7158;SDS011;63175;52.374;13.132;2023-07-20T06:37:43;1.93;;;1.83;;
7158;SDS011;63175;52.374;13.132;2023-07-20T06:40:10;6.40;;;1.60;;
7158;SDS011;63175;52.374;13.132;2023-07-20T06:42:39;1.40;;;1.30;;
7158;SDS011;63175;52.374;13.132;2023-07-20T06:45:06;1.80;;;1.70;;
7158;SDS011;63175;52.374;13.132;2023-07-20T06:47:34;1.47;;;1.33;;
7158;SDS011;63175;52.374;13.132;2023-07-20T06:50:00;2.80;;;1.60;;
7158;SDS011;63175;52.374;13.132;2023-07-20T06:52:27;2.13;;;1.60;;
7158;SDS011;63175;52.374;13.132;2023-07-20T06:54:54;2.10;;;1.43;;
7158;SDS011;63175;52.374;13.132;2023-07-20T06:57:21;2.40;;;1.13;;
7158;SDS011;63175;52.374;13.132;2023-07-20T06:59:50;1.43;;;1.33;;
7158;SDS011;63175;52.374;13.132;2023-07-20T07:02:16;1.33;;;1.17;;
7158;SDS011;63175;52.374;13.132;2023-07-20T07:04:44;1.77;;;1.00;;
7158;SDS011;63175;52.374;13.132;2023-07-20T07:07:13;3.40;;;1.20;;
7158;SDS011;63175;52.374;13.132;2023-07-20T07:09:40;1.20;;;1.10;;
7158;SDS011;63175;52.374;13.132;2023-07-20T07:12:07;1.67;;;1.30;;
7158;SDS011;63175;52.374;13.132;2023-07-20T07:14:34;1.00;;;0.80;;
7158;SDS011;63175;52.374;13.132;2023-07-20T07:17:03;1.00;;;0.90;;
7158;SDS011;63175;52.374;13.132;2023-07-20T07:19:30;1.40;;;0.90;;
7158;SDS011;63175;52.374;13.132;2023-07-20T07:21:57;1.00;;;0.80;;
7158;SDS011;63175;52.374;13.132;2023-07-20T07:24:23;2.83;;;1.00;;
7158;SDS011;63175;52.374;13.132;2023-07-20T07:26:50;1.07;;;0.87;;
7158;SDS011;63175;52.374;13.132;2023-07-20T07:29:17;0.93;;;0.93;;
7158;SDS011;63175;52.374;13.132;2023-07-20T07:31:44;1.47;;;1.10;;
7158;SDS011;63175;52.374;13.132;2023-07-20T07:34:12;2.10;;;1.30;;
7158;SDS011;63175;52.374;13.132;2023-07-20T07:36:39;3.07;;;0.70;;
7158;SDS011;63175;52.374;13.132;2023-07-20T07:39:06;1.60;;;0.97;;
7158;SDS011;63175;52.374;13.132;2023-07-20T07:41:32;1.93;;;0.97;;
7158;SDS011;63175;52.374;13.132;2023-07-20T07:43:59;1.00;;;1.00;;
7158;SDS011;63175;52.374;13.132;2023-07-20T07:46:26;0.87;;;0.80;;
7158;SDS011;63175;52.374;13.132;2023-07-20T07:48:53;1.57;;;0.73;;
7158;SDS011;63175;52.374;13.132;2023-07-20T07:51:21;1.07;;;0.97;;
7158;SDS011;63175;52.374;13.132;2023-07-20T07:53:48;2.73;;;0.70;;
7158;SDS011;63175;52.374;13.132;2023-07-20T07:56:15;1.10;;;1.00;;
7158;SDS011;63175;52.374;13.132;2023-07-20T07:58:42;1.20;;;0.67;;
7158;SDS011;63175;52.374;13.132;2023-07-20T08:01:09;0.80;;;0.80;;
7158;SDS011;63175;52.374;13.132;2023-07-20T08:03:36;1.20;;;0.60;;
7158;SDS011;63175;52.374;13.132;2023-07-20T08:06:03;0.93;;;0.70;;
7158;SDS011;63175;52.374;13.132;2023-07-20T08:08:31;0.90;;;0.90;;
7158;SDS011;63175;52.374;13.132;2023-07-20T08:10:58;0.90;;;0.73;;
7158;SDS011;63175;52.374;13.132;2023-07-20T08:13:25;1.10;;;0.70;;
7158;SDS011;63175;52.374;13.132;2023-07-20T08:15:52;2.33;;;0.70;;
7158;SDS011;63175;52.374;13.132;2023-07-20T08:18:19;0.90;;;0.80;;
7158;SDS011;63175;52.374;13.132;2023-07-20T08:20:46;1.20;;;0.80;;
7158;SDS011;63175;52.374;13.132;2023-07-20T08:23:14;2.17;;;0.97;;
7158;SDS011;63175;52.374;13.132;2023-07-20T08:25:42;0.60;;;0.60;;
7158;SDS011;63175;52.374;13.132;2023-07-20T08:28:09;1.30;;;0.77;;
7158;SDS011;63175;52.374;13.132;2023-07-20T08:30:40;0.83;;;0.83;;
7158;SDS011;63175;52.374;13.132;2023-07-20T08:33:08;1.10;;;1.10;;
7158;SDS011;63175;52.374;13.132;2023-07-20T08:35:36;1.07;;;0.73;;
7158;SDS011;63175;52.374;13.132;2023-07-20T08:38:02;1.00;;;0.90;;
7158;SDS011;63175;52.374;13.132;2023-07-20T08:40:30;1.00;;;0.90;;
7158;SDS011;63175;52.374;13.132;2023-07-20T08:42:59;2.30;;;0.70;;
7158;SDS011;63175;52.374;13.132;2023-07-20T08:45:27;0.80;;;0.80;;
7158;SDS011;63175;52.374;13.132;2023-07-20T08:47:55;1.60;;;0.90;;
7158;SDS011;63175;52.374;13.132;2023-07-20T08:50:24;6.63;;;0.80;;
7158;SDS011;63175;52.374;13.132;2023-07-20T08:52:52;1.00;;;0.63;;
7158;SDS011;63175;52.374;13.132;2023-07-20T08:55:20;1.17;;;0.90;;
7158;SDS011;63175;52.374;13.132;2023-07-20T08:57:48;2.03;;;1.10;;
7158;SDS011;63175;52.374;13.132;2023-07-20T09:00:18;1.60;;;1.00;;
7158;SDS011;63175;52.374;13.132;2023-07-20T09:02:47;3.80;;;0.80;;
7158;SDS011;63175;52.374;13.132;2023-07-20T09:05:16;0.80;;;0.80;;
7158;SDS011;63175;52.374;13.132;2023-07-20T09:07:45;1.07;;;0.83;;
7158;SDS011;63175;52.374;13.132;2023-07-20T09:10:12;1.33;;;0.80;;
7158;SDS011;63175;52.374;13.132;2023-07-20T09:12:40;0.60;;;0.50;;
7158;SDS011;63175;52.374;13.132;2023-07-20T09:15:08;0.97;;;0.60;;
7158;SDS011;63175;52.374;13.132;2023-07-20T09:17:38;1.00;;;0.60;;
7158;SDS011;63175;52.374;13.132;2023-07-20T09:20:05;0.70;;;0.57;;
7158;SDS011;63175;52.374;13.132;2023-07-20T09:22:36;0.60;;;0.50;;
7158;SDS011;63175;52.374;13.132;2023-07-20T09:25:05;0.70;;;0.50;;
7158;SDS011;63175;52.374;13.132;2023-07-20T09:27:36;1.00;;;0.57;;
7158;SDS011;63175;52.374;13.132;2023-07-20T09:30:04;0.53;;;0.40;;
7158;SDS011;63175;52.374;13.132;2023-07-20T09:32:39;0.50;;;0.40;;
7158;SDS011;63175;52.374;13.132;2023-07-20T09:35:12;2.30;;;0.60;;
7158;SDS011;63175;52.374;13.132;2023-07-20T09:37:40;0.60;;;0.40;;
7158;SDS011;63175;52.374;13.132;2023-07-20T09:40:11;0.50;;;0.50;;
7158;SDS011;63175;52.374;13.132;2023-07-20T09:42:41;0.60;;;0.50;;
7158;SDS011;63175;52.374;13.132;2023-07-20T09:45:08;2.10;;;0.40;;
7158;SDS011;63175;52.374;13.132;2023-07-20T09:47:36;0.80;;;0.40;;
7158;SDS011;63175;52.374;13.132;2023-07-20T09:50:05;0.70;;;0.50;;
7158;SDS011;63175;52.374;13.132;2023-07-20T09:52:36;1.03;;;0.90;;
7158;SDS011;63175;52.374;13.132;2023-07-20T09:55:05;0.70;;;0.67;;
7158;SDS011;63175;52.374;13.132;2023-07-20T09:57:34;0.60;;;0.40;;
7158;SDS011;63175;52.374;13.132;2023-07-20T10:00:02;0.87;;;0.50;;
7158;SDS011;63175;52.374;13.132;2023-07-20T10:02:33;0.60;;;0.40;;
7158;SDS011;63175;52.374;13.132;2023-07-20T10:05:04;0.70;;;0.57;;
7158;SDS011;63175;52.374;13.132;2023-07-20T10:07:33;0.80;;;0.60;;
7158;SDS011;63175;52.374;13.132;2023-07-20T10:10:02;0.60;;;0.50;;
7158;SDS011;63175;52.374;13.132;2023-07-20T10:12:30;1.00;;;0.63;;
7158;SDS011;63175;52.374;13.132;2023-07-20T10:14:59;1.40;;;0.60;;
7158;SDS011;63175;52.374;13.132;2023-07-20T10:17:35;2.00;;;0.50;;
7158;SDS011;63175;52.374;13.132;2023-07-20T10:20:16;0.60;;;0.60;;
7158;SDS011;63175;52.374;13.132;2023-07-20T10:22:46;1.00;;;0.80;;
7158;SDS011;63175;52.374;13.132;2023-07-20T10:25:15;2.17;;;0.70;;
7158;SDS011;63175;52.374;13.132;2023-07-20T10:27:44;1.07;;;0.50;;
7158;SDS011;63175;52.374;13.132;2023-07-20T10:30:11;1.20;;;0.50;;
7158;SDS011;63175;52.374;13.132;2023-07-20T10:32:39;1.73;;;1.00;;
7158;SDS011;63175;52.374;13.132;2023-07-20T10:35:16;1.70;;;1.60;;
7158;SDS011;63175;52.374;13.132;2023-07-20T10:37:47;1.43;;;1.07;;
7158;SDS011;63175;52.374;13.132;2023-07-20T10:40:25;1.13;;;1.00;;
7158;SDS011;63175;52.374;13.132;2023-07-20T10:42:58;1.70;;;0.90;;
7158;SDS011;63175;52.374;13.132;2023-07-20T10:45:41;2.30;;;0.63;;
7158;SDS011;63175;52.374;13.132;2023-07-20T10:48:14;1.23;;;1.00;;
7158;SDS011;63175;52.374;13.132;2023-07-20T10:50:43;0.80;;;0.60;;
7158;SDS011;63175;52.374;13.132;2023-07-20T10:53:11;0.80;;;0.67;;
7158;SDS011;63175;52.374;13.132;2023-07-20T10:55:39;1.37;;;0.60;;
7158;SDS011;63175;52.374;13.132;2023-07-20T10:58:07;0.60;;;0.60;;
7158;SDS011;63175;52.374;13.132;2023-07-20T11:00:36;0.90;;;0.80;;
7158;SDS011;63175;52.374;13.132;2023-07-20T11:03:03;0.80;;;0.60;;
7158;SDS011;63175;52.374;13.132;2023-07-20T11:05:31;0.60;;;0.60;;
7158;SDS011;63175;52.374;13.132;2023-07-20T11:08:10;0.70;;;0.60;;
7158;SDS011;63175;52.374;13.132;2023-07-20T11:10:37;1.27;;;0.70;;
7158;SDS011;63175;52.374;13.132;2023-07-20T11:13:23;0.80;;;0.70;;
7158;SDS011;63175;52.374;13.132;2023-07-20T11:16:03;0.70;;;0.60;;
7158;SDS011;63175;52.374;13.132;2023-07-20T11:18:33;0.60;;;0.60;;
7158;SDS011;63175;52.374;13.132;2023-07-20T11:21:00;1.20;;;0.60;;
7158;SDS011;63175;52.374;13.132;2023-07-20T11:23:30;0.77;;;0.60;;
7158;SDS011;63175;52.374;13.132;2023-07-20T11:25:59;1.17;;;0.60;;
7158;SDS011;63175;52.374;13.132;2023-07-20T11:28:30;1.00;;;0.63;;
7158;SDS011;63175;52.374;13.132;2023-07-20T11:30:56;0.70;;;0.47;;
7158;SDS011;63175;52.374;13.132;2023-07-20T11:33:23;0.67;;;0.57;;
7158;SDS011;63175;52.374;13.132;2023-07-20T11:35:50;0.80;;;0.80;;
7158;SDS011;63175;52.374;13.132;2023-07-20T11:38:18;0.60;;;0.60;;
7158;SDS011;63175;52.374;13.132;2023-07-20T11:40:46;0.73;;;0.50;;
7158;SDS011;63175;52.374;13.132;2023-07-20T11:43:13;0.60;;;0.50;;
7158;SDS011;63175;52.374;13.132;2023-07-20T11:45:40;0.50;;;0.50;;
7158;SDS011;63175;52.374;13.132;2023-07-20T11:48:07;0.70;;;0.50;;
7158;SDS011;63175;52.374;13.132;2023-07-20T11:50:40;0.60;;;0.60;;
7158;SDS011;63175;52.374;13.132;2023-07-20T11:53:06;0.77;;;0.60;;
7158;SDS011;63175;52.374;13.132;2023-07-20T11:55:34;0.70;;;0.70;;
7158;SDS011;63175;52.374;13.132;2023-07-20T11:58:03;2.40;;;0.90;;
7158;SDS011;63175;52.374;13.132;2023-07-20T12:00:31;1.07;;;0.80;;
7158;SDS011;63175;52.374;13.132;2023-07-20T12:02:58;0.60;;;0.50;;
7158;SDS011;63175;52.374;13.132;2023-07-20T12:05:25;0.70;;;0.70;;
7158;SDS011;63175;52.374;13.132;2023-07-20T12:07:53;0.70;;;0.70;;
7158;SDS011;63175;52.374;13.132;2023-07-20T12:10:24;0.90;;;0.67;;
7158;SDS011;63175;52.374;13.132;2023-07-20T12:12:53;0.70;;;0.70;;
7158;SDS011;63175;52.374;13.132;2023-07-20T12:15:22;0.80;;;0.70;;
7158;SDS011;63175;52.374;13.132;2023-07-20T12:17:52;0.70;;;0.60;;
7158;SDS011;63175;52.374;13.132;2023-07-20T12:20:26;0.60;;;0.60;;
7158;SDS011;63175;52.374;13.132;2023-07-20T12:22:55;1.93;;;0.73;;
7158;SDS011;63175;52.374;13.132;2023-07-20T12:25:31;0.67;;;0.57;;
7158;SDS011;63175;52.374;13.132;2023-07-20T12:28:00;1.80;;;0.83;;
7158;SDS011;63175;52.374;13.132;2023-07-20T12:30:30;2.07;;;0.57;;
7158;SDS011;63175;52.374;13.132;2023-07-20T12:32:56;0.70;;;0.50;;
7158;SDS011;63175;52.374;13.132;2023-07-20T12:35:23;0.80;;;0.50;;
7158;SDS011;63175;52.374;13.132;2023-07-20T12:37:50;0.63;;;0.50;;
7158;SDS011;63175;52.374;13.132;2023-07-20T12:40:18;0.60;;;0.40;;
7158;SDS011;63175;52.374;13.132;2023-07-20T12:42:46;0.80;;;0.50;;
7158;SDS011;63175;52.374;13.132;2023-07-20T12:45:13;0.70;;;0.50;;
7158;SDS011;63175;52.374;13.132;2023-07-20T12:47:41;0.60;;;0.50;;
7158;SDS011;63175;52.374;13.132;2023-07-20T12:50:09;0.87;;;0.50;;
7158;SDS011;63175;52.374;13.132;2023-07-20T12:52:36;0.60;;;0.40;;
7158;SDS011;63175;52.374;13.132;2023-07-20T12:55:04;0.53;;;0.40;;
7158;SDS011;63175;52.374;13.132;2023-07-20T12:57:31;1.30;;;1.20;;
7158;SDS011;63175;52.374;13.132;2023-07-20T12:59:59;1.70;;;1.60;;
7158;SDS011;63175;52.374;13.132;2023-07-20T13:02:26;0.93;;;0.83;;
7158;SDS011;63175;52.374;13.132;2023-07-20T13:04:54;0.73;;;0.73;;
7158;SDS011;63175;52.374;13.132;2023-07-20T13:07:28;1.27;;;0.50;;
7158;SDS011;63175;52.374;13.132;2023-07-20T13:09:56;0.70;;;0.60;;
7158;SDS011;63175;52.374;13.132;2023-07-20T13:12:25;0.60;;;0.50;;
7158;SDS011;63175;52.374;13.132;2023-07-20T13:14:52;0.60;;;0.60;;
7158;SDS011;63175;52.374;13.132;2023-07-20T13:17:19;0.80;;;0.60;;
7158;SDS011;63175;52.374;13.132;2023-07-20T13:19:46;0.60;;;0.57;;
7158;SDS011;63175;52.374;13.132;2023-07-20T13:22:14;0.90;;;0.50;;
7158;SDS011;63175;52.374;13.132;2023-07-20T13:24:41;0.50;;;0.40;;
7158;SDS011;63175;52.374;13.132;2023-07-20T13:27:07;0.53;;;0.50;;
7158;SDS011;63175;52.374;13.132;2023-07-20T13:29:34;1.00;;;0.70;;
7158;SDS011;63175;52.374;13.132;2023-07-20T13:32:01;0.50;;;0.40;;
7158;SDS011;63175;52.374;13.132;2023-07-20T13:34:30;0.70;;;0.40;;
7158;SDS011;63175;52.374;13.132;2023-07-20T13:36:57;0.50;;;0.40;;
7158;SDS011;63175;52.374;13.132;2023-07-20T13:39:25;0.60;;;0.40;;
7158;SDS011;63175;52.374;13.132;2023-07-20T13:41:52;0.60;;;0.50;;
7158;SDS011;63175;52.374;13.132;2023-07-20T13:44:19;0.60;;;0.50;;
7158;SDS011;63175;52.374;13.132;2023-07-20T13:46:46;0.50;;;0.40;;
7158;SDS011;63175;52.374;13.132;2023-07-20T13:49:13;0.80;;;0.63;;
7158;SDS011;63175;52.374;13.132;2023-07-20T13:54:07;0.67;;;0.50;;
7158;SDS011;63175;52.374;13.132;2023-07-20T13:56:36;0.60;;;0.57;;
7158;SDS011;63175;52.374;13.132;2023-07-20T13:59:02;0.93;;;0.40;;
7158;SDS011;63175;52.374;13.132;2023-07-20T14:01:29;0.70;;;0.70;;
7158;SDS011;63175;52.374;13.132;2023-07-20T14:03:58;0.73;;;0.50;;
7158;SDS011;63175;52.374;13.132;2023-07-20T14:06:25;0.70;;;0.67;;
7158;SDS011;63175;52.374;13.132;2023-07-20T14:08:52;2.13;;;0.50;;
7158;SDS011;63175;52.374;13.132;2023-07-20T14:11:19;0.60;;;0.43;;
7158;SDS011;63175;52.374;13.132;2023-07-20T14:13:47;0.80;;;0.50;;
7158;SDS011;63175;52.374;13.132;2023-07-20T14:16:14;0.60;;;0.43;;
7158;SDS011;63175;52.374;13.132;2023-07-20T14:18:40;0.53;;;0.50;;
7158;SDS011;63175;52.374;13.132;2023-07-20T14:21:07;0.60;;;0.50;;
7158;SDS011;63175;52.374;13.132;2023-07-20T14:23:34;0.53;;;0.47;;
7158;SDS011;63175;52.374;13.132;2023-07-20T14:26:01;0.57;;;0.50;;
7158;SDS011;63175;52.374;13.132;2023-07-20T14:28:30;0.60;;;0.50;;
7158;SDS011;63175;52.374;13.132;2023-07-20T14:30:58;0.80;;;0.80;;
7158;SDS011;63175;52.374;13.132;2023-07-20T14:33:25;0.70;;;0.60;;
7158;SDS011;63175;52.374;13.132;2023-07-20T14:35:52;0.50;;;0.50;;
7158;SDS011;63175;52.374;13.132;2023-07-20T14:38:19;1.00;;;0.40;;
7158;SDS011;63175;52.374;13.132;2023-07-20T14:40:46;0.70;;;0.50;;
7158;SDS011;63175;52.374;13.132;2023-07-20T14:43:13;0.83;;;0.50;;
7158;SDS011;63175;52.374;13.132;2023-07-20T14:45:40;0.60;;;0.40;;
7158;SDS011;63175;52.374;13.132;2023-07-20T14:48:08;0.60;;;0.40;;
7158;SDS011;63175;52.374;13.132;2023-07-20T14:50:35;0.60;;;0.40;;
7158;SDS011;63175;52.374;13.132;2023-07-20T14:53:02;0.57;;;0.50;;
7158;SDS011;63175;52.374;13.132;2023-07-20T14:55:29;0.60;;;0.50;;
7158;SDS011;63175;52.374;13.132;2023-07-20T14:57:56;0.50;;;0.50;;